Time;durP1;ratioP1;P1;durP2;ratioP2;P2;SDS_P1;SDS_P2;PMS_P1;PMS_P2;Temp;Humidity;BMP_temperature;BMP_pressure;BME280_temperature;BME280_humidity;BME280_pressure;Samples;Min_cycle;Max_cycle;Signal;HPM_P1;HPM_P2
2023/05/30 00:01:13;;;;;;;;;;;;;;;19.68;26.97;101606.03;6185065;23;19912;-56
2023/05/30 00:03:39;;;;;;;;;;;;;;;19.65;27.25;101611.09;6185902;23;19919;-55
2023/05/30 00:06:05;;;;;;;;;;;;;;;19.61;27.13;101601.72;6159391;23;19908;-55
2023/05/30 00:08:30;;;;;;;;;;;;;;;19.68;26.95;101616.13;6185733;23;19923;-54
2023/05/30 00:10:56;;;;;;;;;;;;;;;19.59;26.87;101615.56;6185915;23;19979;-53
2023/05/30 00:13:21;;;;;;;;;;;;;;;19.66;26.86;101620.97;6185911;23;19919;-54
2023/05/30 00:15:47;;;;;;;;;;;;;;;19.66;26.60;101621.78;6185668;23;19908;-53
2023/05/30 00:18:13;;;;;;;;;;;;;;;19.71;26.68;101632.03;6185719;23;19917;-55
2023/05/30 00:20:39;;;;;;;;;;;;;;;19.64;26.88;101629.34;6185971;23;19908;-52
2023/05/30 00:23:04;;;;;;;;;;;;;;;19.63;27.20;101626.84;6185578;23;19908;-54
2023/05/30 00:25:32;;;;;;;;;;;;;;;19.65;26.46;101628.31;6185476;23;19909;-53
2023/05/30 00:27:58;;;;;;;;;;;;;;;19.66;26.29;101632.69;6185552;23;19915;-56
2023/05/30 00:30:23;;;;;;;;;;;;;;;19.68;26.81;101649.66;6185271;23;19908;-55
2023/05/30 00:32:49;;;;;;;;;;;;;;;19.63;26.21;101654.97;6158853;23;20003;-51
2023/05/30 00:35:14;;;;;;;;;;;;;;;19.57;26.86;101661.28;6185355;23;19915;-52
2023/05/30 00:37:39;;;;;;;;;;;;;;;19.42;27.61;101664.38;6185289;23;19924;-54
2023/05/30 00:40:06;;;;;;;;;;;;;;;19.45;26.54;101663.94;6185314;23;20333;-56
2023/05/30 00:42:31;;;;;;;;;;;;;;;19.46;26.49;101664.75;6185384;23;19915;-54
2023/05/30 00:44:57;;;;;;;;;;;;;;;19.44;26.49;101667.69;6185694;23;20285;-52
2023/05/30 00:47:22;;;;;;;;;;;;;;;19.35;26.71;101669.03;6158917;23;19935;-52
2023/05/30 00:49:47;;;;;;;;;;;;;;;19.33;26.84;101669.28;6185479;23;20042;-51
2023/05/30 00:52:13;;;;;;;;;;;;;;;19.28;27.42;101669.09;6185191;23;20191;-51
2023/05/30 00:54:42;;;;;;;;;;;;;;;19.23;27.88;101681.72;6185370;23;20110;-54
2023/05/30 00:57:08;;;;;;;;;;;;;;;19.20;27.46;101693.03;6185490;23;19944;-54
2023/05/30 00:59:33;;;;;;;;;;;;;;;19.12;28.13;101705.03;6185375;23;19916;-53
2023/05/30 01:01:58;;;;;;;;;;;;;;;19.19;27.67;101702.28;6184434;23;19912;-50
2023/05/30 01:04:24;;;;;;;;;;;;;;;19.13;27.71;101713.00;6185094;23;20011;-55
2023/05/30 01:06:49;;;;;;;;;;;;;;;19.06;28.31;101717.66;6185474;23;20004;-53
2023/05/30 01:09:15;;;;;;;;;;;;;;;18.99;28.57;101722.31;6185043;23;20449;-53
2023/05/30 01:11:59;;;;;;;;;;;;;;;18.89;28.61;101720.06;6185341;23;19994;-53
2023/05/30 01:14:27;;;;;;;;;;;;;;;18.96;28.06;101733.63;6184995;23;19916;-54
2023/05/30 01:16:55;;;;;;;;;;;;;;;18.93;27.78;101732.19;6184827;23;19943;-53
2023/05/30 01:19:26;;;;;;;;;;;;;;;18.93;28.07;101753.13;6185048;23;19967;-53
2023/05/30 01:21:59;;;;;;;;;;;;;;;18.89;28.32;101752.72;6184911;23;19916;-54
2023/05/30 01:24:34;;;;;;;;;;;;;;;18.88;28.15;101747.50;6185399;23;20301;-52
2023/05/30 01:27:09;;;;;;;;;;;;;;;18.76;28.78;101759.03;6185048;23;19912;-51
2023/05/30 01:29:36;;;;;;;;;;;;;;;18.69;28.63;101758.22;6184910;23;20314;-53
2023/05/30 01:32:03;;;;;;;;;;;;;;;18.60;29.30;101750.53;6185685;23;19935;-55
2023/05/30 01:34:29;;;;;;;;;;;;;;;18.58;28.82;101748.03;6184725;23;19908;-54
2023/05/30 01:36:55;;;;;;;;;;;;;;;18.58;28.58;101762.44;6185442;23;19916;-56
2023/05/30 01:39:20;;;;;;;;;;;;;;;18.62;28.82;101760.13;6186799;23;19915;-55
2023/05/30 01:41:49;;;;;;;;;;;;;;;18.60;28.50;101766.84;6158425;23;19909;-54
2023/05/30 01:44:26;;;;;;;;;;;;;;;18.58;28.98;101772.50;6185078;23;19908;-56
2023/05/30 01:46:58;;;;;;;;;;;;;;;18.58;28.80;101775.22;6185183;23;19958;-56
2023/05/30 01:49:37;;;;;;;;;;;;;;;18.59;28.50;101779.63;6184487;23;19941;-56
2023/05/30 01:52:07;;;;;;;;;;;;;;;18.61;28.22;101779.41;6184956;23;19912;-55
2023/05/30 01:54:33;;;;;;;;;;;;;;;18.60;28.70;101794.06;6184752;23;19908;-56
2023/05/30 01:57:02;;;;;;;;;;;;;;;18.55;28.06;101798.28;6158148;23;20026;-54
2023/05/30 01:59:29;;;;;;;;;;;;;;;18.51;28.75;101807.88;6184135;23;19908;-55
2023/05/30 02:01:55;;;;;;;;;;;;;;;18.50;28.85;101821.72;6183244;23;19908;-56
2023/05/30 02:04:20;;;;;;;;;;;;;;;18.47;28.68;101825.69;6184026;23;19922;-52
2023/05/30 02:06:45;;;;;;;;;;;;;;;18.52;28.28;101833.22;6184371;23;20292;-53
2023/05/30 02:09:10;;;;;;;;;;;;;;;18.50;28.51;101833.44;6184225;23;19916;-51
2023/05/30 02:11:37;;;;;;;;;;;;;;;18.47;28.16;101846.63;6184113;23;20299;-56
2023/05/30 02:14:02;;;;;;;;;;;;;;;18.44;28.75;101847.88;6184187;23;19947;-53
2023/05/30 02:16:27;;;;;;;;;;;;;;;18.44;28.29;101866.91;6157768;23;19912;-56
2023/05/30 02:18:53;;;;;;;;;;;;;;;18.42;27.70;101860.84;6184645;23;19987;-55
2023/05/30 02:21:18;;;;;;;;;;;;;;;18.47;28.83;101871.09;6184694;23;20156;-54
2023/05/30 02:23:44;;;;;;;;;;;;;;;18.45;27.76;101870.50;6184965;23;19916;-54
2023/05/30 02:26:09;;;;;;;;;;;;;;;18.39;27.73;101866.72;6184799;23;20316;-54
2023/05/30 02:28:34;;;;;;;;;;;;;;;18.34;28.43;101864.63;6185530;23;19909;-55
2023/05/30 02:31:00;;;;;;;;;;;;;;;18.28;29.29;101865.47;6184905;23;20302;-56
2023/05/30 02:33:26;;;;;;;;;;;;;;;18.20;29.67;101868.41;6184650;23;19919;-57
2023/05/30 02:35:51;;;;;;;;;;;;;;;18.15;29.30;101871.75;6184687;23;19920;-55
2023/05/30 02:38:16;;;;;;;;;;;;;;;18.13;29.35;101860.25;6158472;23;19974;-54
2023/05/30 02:40:42;;;;;;;;;;;;;;;18.12;29.40;101871.34;6184948;23;20067;-53
2023/05/30 02:43:07;;;;;;;;;;;;;;;18.13;29.20;101868.41;6185003;23;19908;-56
2023/05/30 02:45:32;;;;;;;;;;;;;;;18.14;29.15;101872.78;6184577;23;19960;-55
2023/05/30 02:47:57;;;;;;;;;;;;;;;18.16;28.67;101884.31;6184672;23;19915;-55
2023/05/30 02:50:23;;;;;;;;;;;;;;;18.16;29.25;101881.59;6158202;23;19931;-57
2023/05/30 02:52:48;;;;;;;;;;;;;;;18.13;30.08;101882.00;6184840;23;19912;-54
2023/05/30 02:55:13;;;;;;;;;;;;;;;18.12;29.05;101882.22;6185317;23;19909;-54
2023/05/30 02:57:38;;;;;;;;;;;;;;;18.15;28.64;101885.34;6186773;23;19975;-55
2023/05/30 03:00:05;;;;;;;;;;;;;;;18.17;28.83;101898.75;6186818;23;19935;-53
2023/05/30 03:02:30;;;;;;;;;;;;;;;18.12;28.94;101903.97;6185651;23;19908;-51
2023/05/30 03:04:55;;;;;;;;;;;;;;;18.07;29.09;101910.03;6186744;23;20039;-53
2023/05/30 03:07:21;;;;;;;;;;;;;;;18.01;29.61;101916.28;6186459;23;20424;-52
2023/05/30 03:09:46;;;;;;;;;;;;;;;17.94;29.35;101919.03;6186689;23;19916;-55
2023/05/30 03:12:12;;;;;;;;;;;;;;;17.94;29.22;101916.31;6186324;23;20245;-54
2023/05/30 03:14:37;;;;;;;;;;;;;;;17.93;28.57;101911.91;6187047;23;19916;-55
2023/05/30 03:17:03;;;;;;;;;;;;;;;17.96;28.67;101910.66;6186555;23;19928;-49
2023/05/30 03:19:28;;;;;;;;;;;;;;;17.96;28.85;101913.38;6186532;23;19908;-52
2023/05/30 03:21:53;;;;;;;;;;;;;;;17.95;29.03;101926.13;6186289;23;19912;-50
2023/05/30 03:24:20;;;;;;;;;;;;;;;17.93;29.05;101930.91;6186719;23;19998;-50
2023/05/30 03:26:45;;;;;;;;;;;;;;;17.87;29.77;101931.75;6186455;23;20209;-53
2023/05/30 03:29:10;;;;;;;;;;;;;;;17.84;29.57;101934.84;6186595;23;19954;-52
2023/05/30 03:31:36;;;;;;;;;;;;;;;17.84;29.18;101940.28;6187540;23;19987;-54
2023/05/30 03:34:02;;;;;;;;;;;;;;;17.85;29.07;101950.16;6187591;23;20313;-52
2023/05/30 03:36:27;;;;;;;;;;;;;;;17.82;29.23;101952.41;6159606;23;19916;-50
2023/05/30 03:38:56;;;;;;;;;;;;;;;17.86;29.44;101954.53;6159508;23;19936;-51
2023/05/30 03:41:22;;;;;;;;;;;;;;;17.86;29.87;101959.97;6186313;23;19934;-51
2023/05/30 03:43:47;;;;;;;;;;;;;;;17.89;29.06;101966.88;6159779;23;19943;-52
2023/05/30 03:46:15;;;;;;;;;;;;;;;17.87;29.73;101971.69;6185510;23;19954;-52
2023/05/30 03:48:41;;;;;;;;;;;;;;;17.86;29.31;101975.44;6185871;23;19912;-57
2023/05/30 03:51:06;;;;;;;;;;;;;;;17.86;29.26;101978.16;6185873;23;19915;-51
2023/05/30 03:53:32;;;;;;;;;;;;;;;17.90;29.02;101977.53;6186307;23;20035;-55
2023/05/30 03:55:57;;;;;;;;;;;;;;;17.95;28.69;101975.03;6161403;23;19908;-54
2023/05/30 03:58:22;;;;;;;;;;;;;;;17.97;28.43;101991.16;6187375;23;19919;-52
2023/05/30 04:00:47;;;;;;;;;;;;;;;17.98;28.57;101992.84;6186892;23;19908;-54
2023/05/30 04:03:13;;;;;;;;;;;;;;;18.02;28.58;101985.13;6187462;23;19908;-56
2023/05/30 04:05:38;;;;;;;;;;;;;;;18.09;28.35;101997.69;6161399;23;19908;-55
2023/05/30 04:08:03;;;;;;;;;;;;;;;18.11;28.05;102000.19;6186797;23;19979;-51
2023/05/30 04:10:29;;;;;;;;;;;;;;;18.10;28.21;101998.50;6186237;23;19912;-54
2023/05/30 04:12:54;;;;;;;;;;;;;;;18.13;27.89;102014.41;6185723;23;19913;-50
2023/05/30 04:15:19;;;;;;;;;;;;;;;18.16;27.95;102025.72;6185685;23;19920;-55
2023/05/30 04:17:45;;;;;;;;;;;;;;;18.16;28.19;102043.88;6186110;23;19916;-53
2023/05/30 04:20:12;;;;;;;;;;;;;;;18.14;29.14;102048.69;6185732;23;19912;-55
2023/05/30 04:22:37;;;;;;;;;;;;;;;18.19;28.79;102057.09;6185606;23;19914;-51
2023/05/30 04:25:03;;;;;;;;;;;;;;;18.24;28.21;102064.63;6185732;23;19931;-55
2023/05/30 04:27:29;;;;;;;;;;;;;;;18.27;28.15;102054.16;6185122;23;20333;-57
2023/05/30 04:29:54;;;;;;;;;;;;;;;18.30;28.52;102051.03;6185542;23;19984;-56
2023/05/30 04:32:20;;;;;;;;;;;;;;;18.33;28.03;102057.94;6185471;23;20222;-54
2023/05/30 04:34:45;;;;;;;;;;;;;;;18.35;28.13;102056.72;6185374;23;19912;-53
2023/05/30 04:37:12;;;;;;;;;;;;;;;18.32;28.45;102054.41;6185413;23;20303;-54
2023/05/30 04:39:37;;;;;;;;;;;;;;;18.40;28.29;102055.25;6159284;23;19912;-51
2023/05/30 04:42:04;;;;;;;;;;;;;;;18.46;27.73;102059.84;6185477;23;20290;-52
2023/05/30 04:44:37;;;;;;;;;;;;;;;18.44;28.55;102056.50;6185719;23;19908;-52
2023/05/30 04:47:03;;;;;;;;;;;;;;;18.49;28.03;102054.84;6185927;23;19955;-53
2023/05/30 04:49:28;;;;;;;;;;;;;;;18.51;28.08;102044.59;6185696;23;20306;-51
2023/05/30 04:51:53;;;;;;;;;;;;;;;18.53;27.75;102044.38;6185535;23;20191;-54
2023/05/30 04:54:18;;;;;;;;;;;;;;;18.54;28.50;102036.00;6185643;23;20325;-49
2023/05/30 04:56:44;;;;;;;;;;;;;;;18.52;28.10;102038.09;6185678;23;20251;-49
2023/05/30 04:59:09;;;;;;;;;;;;;;;18.56;28.48;102043.97;6185165;23;19913;-54
2023/05/30 05:01:35;;;;;;;;;;;;;;;18.58;28.24;102040.00;6184052;23;19915;-55
2023/05/30 05:04:01;;;;;;;;;;;;;;;18.64;27.95;102043.75;6159122;23;19908;-53
2023/05/30 05:06:26;;;;;;;;;;;;;;;18.68;27.90;102042.28;6185536;23;19915;-50
2023/05/30 05:08:52;;;;;;;;;;;;;;;18.67;27.98;102048.78;6159081;23;20229;-51
2023/05/30 05:11:17;;;;;;;;;;;;;;;18.74;27.83;102043.38;6159163;23;19908;-52
2023/05/30 05:13:42;;;;;;;;;;;;;;;18.83;27.46;102046.72;6185455;23;19912;-49
2023/05/30 05:16:08;;;;;;;;;;;;;;;18.84;27.14;102048.41;6184918;23;20304;-52
2023/05/30 05:18:33;;;;;;;;;;;;;;;18.86;27.20;102049.88;6184949;23;19908;-53
2023/05/30 05:20:59;;;;;;;;;;;;;;;18.88;27.13;102055.09;6184933;23;19917;-50
2023/05/30 05:23:24;;;;;;;;;;;;;;;18.90;27.13;102044.84;6185052;23;19908;-52
2023/05/30 05:25:49;;;;;;;;;;;;;;;18.94;27.02;102051.53;6184901;23;19962;-55
2023/05/30 05:28:15;;;;;;;;;;;;;;;19.01;26.88;102054.25;6184716;23;19916;-55
2023/05/30 05:30:40;;;;;;;;;;;;;;;19.00;26.77;102049.84;6185409;23;19912;-55
2023/05/30 05:33:06;;;;;;;;;;;;;;;19.00;26.79;102052.56;6184519;23;20340;-55
2023/05/30 05:35:31;;;;;;;;;;;;;;;19.03;26.99;102058.44;6184853;23;19908;-54
2023/05/30 05:37:56;;;;;;;;;;;;;;;19.00;27.25;102058.03;6158456;23;20306;-55
2023/05/30 05:40:22;;;;;;;;;;;;;;;18.99;27.11;102061.81;6184434;23;19909;-50
2023/05/30 05:42:47;;;;;;;;;;;;;;;19.07;27.03;102062.41;6184748;23;19962;-56
2023/05/30 05:45:12;;;;;;;;;;;;;;;19.03;27.08;102066.59;6185164;23;20315;-55
2023/05/30 05:47:38;;;;;;;;;;;;;;;19.12;26.96;102067.25;6185091;23;20270;-54
2023/05/30 05:50:04;;;;;;;;;;;;;;;19.22;26.51;102072.25;6184901;23;20273;-54
2023/05/30 05:52:29;;;;;;;;;;;;;;;19.26;26.52;102068.03;6184545;23;19916;-56
2023/05/30 05:54:54;;;;;;;;;;;;;;;19.26;26.51;102073.50;6184917;23;19908;-53
2023/05/30 05:57:19;;;;;;;;;;;;;;;19.31;26.38;102065.53;6184643;23;19967;-51
2023/05/30 05:59:45;;;;;;;;;;;;;;;19.27;26.42;102067.84;6184467;23;19931;-52
2023/05/30 06:02:11;;;;;;;;;;;;;;;19.38;26.13;102069.06;6157726;23;20222;-56
2023/05/30 06:04:37;;;;;;;;;;;;;;;19.43;26.09;102069.28;6184608;23;19940;-53
2023/05/30 06:07:03;;;;;;;;;;;;;;;19.48;26.15;102066.75;6184752;23;19916;-53
2023/05/30 06:09:31;;;;;;;;;;;;;;;19.41;26.07;102063.22;6184335;23;20434;-54
2023/05/30 06:12:00;;;;;;;;;;;;;;;19.48;26.03;102076.81;6184349;23;19986;-56
2023/05/30 06:14:26;;;;;;;;;;;;;;;19.56;25.83;102073.88;6184592;23;19908;-53
2023/05/30 06:16:51;;;;;;;;;;;;;;;19.61;25.93;102081.38;6185067;23;19988;-51
2023/05/30 06:19:16;;;;;;;;;;;;;;;19.54;25.90;102079.53;6184892;23;19915;-55
2023/05/30 06:21:42;;;;;;;;;;;;;;;19.59;25.75;102081.59;6185232;23;19979;-50
2023/05/30 06:24:07;;;;;;;;;;;;;;;19.60;25.83;102082.44;6184685;23;20230;-52
2023/05/30 06:26:33;;;;;;;;;;;;;;;19.70;25.40;102077.38;6184759;23;19943;-55
2023/05/30 06:28:58;;;;;;;;;;;;;;;19.66;25.61;102071.50;6184762;23;19990;-52
2023/05/30 06:31:23;;;;;;;;;;;;;;;19.60;25.88;102075.09;6186503;23;19908;-53
2023/05/30 06:33:48;;;;;;;;;;;;;;;19.61;25.99;102070.47;6160218;23;19916;-54
2023/05/30 06:36:14;;;;;;;;;;;;;;;19.61;25.84;102070.47;6186612;23;19976;-51
2023/05/30 06:38:40;;;;;;;;;;;;;;;19.70;25.89;102069.19;6186535;23;20333;-56
2023/05/30 06:41:05;;;;;;;;;;;;;;;19.77;25.92;102080.94;6186826;23;19912;-53
2023/05/30 06:43:30;;;;;;;;;;;;;;;19.73;25.89;102074.25;6186769;23;19908;-54
2023/05/30 06:45:55;;;;;;;;;;;;;;;19.71;26.04;102077.16;6186587;23;19992;-54
2023/05/30 06:48:21;;;;;;;;;;;;;;;19.89;25.78;102072.91;6186555;23;19931;-53
2023/05/30 06:50:46;;;;;;;;;;;;;;;19.86;25.94;102074.19;6186632;23;19908;-52
2023/05/30 06:53:11;;;;;;;;;;;;;;;19.86;25.92;102081.53;6160094;23;19912;-53
2023/05/30 06:55:36;;;;;;;;;;;;;;;19.83;26.01;102080.06;6186640;23;19908;-54
2023/05/30 06:58:04;;;;;;;;;;;;;;;19.88;26.17;102085.72;6186883;23;19908;-52
2023/05/30 07:00:29;;;;;;;;;;;;;;;19.85;26.09;102099.78;6186625;23;20340;-54
2023/05/30 07:02:55;;;;;;;;;;;;;;;19.96;25.90;102105.63;6185353;23;19909;-55
2023/05/30 07:05:20;;;;;;;;;;;;;;;20.04;25.89;102105.38;6186361;23;19926;-54
2023/05/30 07:07:46;;;;;;;;;;;;;;;19.99;25.71;102103.31;6186533;23;19908;-54
2023/05/30 07:10:12;;;;;;;;;;;;;;;20.00;26.02;102102.25;6186176;23;20311;-50
2023/05/30 07:12:37;;;;;;;;;;;;;;;20.02;25.87;102099.28;6186273;23;20299;-51
2023/05/30 07:15:03;;;;;;;;;;;;;;;20.12;25.91;102105.13;6186282;23;19909;-51
2023/05/30 07:17:28;;;;;;;;;;;;;;;19.98;26.00;102098.88;6186492;23;19908;-51
2023/05/30 07:19:53;;;;;;;;;;;;;;;19.98;26.00;102100.78;6186547;23;19952;-53
2023/05/30 07:22:19;;;;;;;;;;;;;;;20.02;26.11;102102.88;6186320;23;20273;-51
2023/05/30 07:24:44;;;;;;;;;;;;;;;20.02;25.98;102100.16;6186198;23;19931;-50
2023/05/30 07:27:10;;;;;;;;;;;;;;;20.01;26.05;102095.75;6159906;23;19934;-55
2023/05/30 07:29:35;;;;;;;;;;;;;;;20.20;25.78;102102.16;6186342;23;20342;-52
2023/05/30 07:32:01;;;;;;;;;;;;;;;20.23;25.89;102095.44;6186201;23;19940;-54
2023/05/30 07:34:26;;;;;;;;;;;;;;;20.46;25.34;102094.88;6185801;23;20055;-55
2023/05/30 07:36:51;;;;;;;;;;;;;;;20.60;25.46;102101.09;6186202;23;19928;-50
2023/05/30 07:39:16;;;;;;;;;;;;;;;20.58;25.37;102104.03;6186081;23;20306;-53
2023/05/30 07:41:42;;;;;;;;;;;;;;;20.51;25.08;102095.06;6185542;23;19958;-56
2023/05/30 07:44:07;;;;;;;;;;;;;;;20.50;25.21;102096.09;6186455;23;19909;-52
2023/05/30 07:46:33;;;;;;;;;;;;;;;20.41;25.49;102097.41;6186123;23;19931;-50
2023/05/30 07:48:58;;;;;;;;;;;;;;;20.46;25.21;102101.16;6186541;23;20434;-50
2023/05/30 07:51:23;;;;;;;;;;;;;;;20.45;24.79;102095.94;6159722;23;19983;-55
2023/05/30 07:53:49;;;;;;;;;;;;;;;20.49;24.91;102088.97;6185983;23;19970;-55
2023/05/30 07:56:14;;;;;;;;;;;;;;;20.62;25.37;102086.19;6185742;23;19913;-55
2023/05/30 07:58:40;;;;;;;;;;;;;;;20.61;25.38;102087.22;6185838;23;19912;-56
2023/05/30 08:01:05;;;;;;;;;;;;;;;20.72;25.37;102082.94;6185456;23;19915;-52
2023/05/30 08:03:33;;;;;;;;;;;;;;;20.63;25.67;102089.75;6185371;23;20319;-52
2023/05/30 08:05:58;;;;;;;;;;;;;;;20.84;25.52;102080.34;6185233;23;19908;-53
2023/05/30 08:08:25;;;;;;;;;;;;;;;20.96;25.63;102103.13;6185811;23;20038;-56
2023/05/30 08:10:50;;;;;;;;;;;;;;;20.85;25.34;102099.22;6185775;23;19940;-52
2023/05/30 08:13:18;;;;;;;;;;;;;;;20.73;25.38;102100.16;6185957;23;19959;-53
2023/05/30 08:15:43;;;;;;;;;;;;;;;20.91;25.19;102088.47;6185805;23;19935;-49
2023/05/30 08:18:10;;;;;;;;;;;;;;;20.95;25.39;102087.81;6185962;23;19927;-56
2023/05/30 08:20:36;;;;;;;;;;;;;;;20.97;25.27;102080.25;6185940;23;19909;-51
2023/05/30 08:23:01;;;;;;;;;;;;;;;20.98;25.46;102086.53;6185756;23;20365;-52
2023/05/30 08:25:32;;;;;;;;;;;;;;;20.88;25.39;102084.31;6185813;23;19915;-48
2023/05/30 08:28:01;;;;;;;;;;;;;;;21.10;25.69;102075.69;6185229;23;19908;-50
2023/05/30 08:30:26;;;;;;;;;;;;;;;21.19;25.59;102080.69;6185605;23;20259;-48
2023/05/30 08:32:51;;;;;;;;;;;;;;;21.28;25.07;102073.00;6185195;23;19919;-53
2023/05/30 08:35:16;;;;;;;;;;;;;;;21.39;25.19;102066.78;6185594;23;20218;-51
2023/05/30 08:37:42;;;;;;;;;;;;;;;21.45;25.09;102063.19;6185163;23;19916;-49
2023/05/30 08:40:11;;;;;;;;;;;;;;;21.55;24.83;102056.34;6185509;23;19916;-51
2023/05/30 08:42:37;;;;;;;;;;;;;;;21.63;25.47;102045.94;6185037;23;19983;-53
2023/05/30 08:45:03;;;;;;;;;;;;;;;21.79;25.14;102051.88;6184835;23;19951;-52
2023/05/30 08:47:29;;;;;;;;;;;;;;;21.84;25.14;102047.38;6184990;23;19916;-55
2023/05/30 08:49:54;;;;;;;;;;;;;;;21.87;25.22;102050.72;6184711;23;20203;-53
2023/05/30 08:52:22;;;;;;;;;;;;;;;21.95;25.02;102043.03;6184538;23;19963;-54
2023/05/30 08:54:53;;;;;;;;;;;;;;;21.95;25.02;102050.38;6185251;23;19908;-54
2023/05/30 08:57:24;;;;;;;;;;;;;;;22.07;25.02;102034.84;6159226;23;19908;-55
2023/05/30 08:59:49;;;;;;;;;;;;;;;22.13;25.09;102044.88;6185245;23;19940;-56
2023/05/30 09:02:15;;;;;;;;;;;;;;;22.22;24.99;102048.13;6184524;23;19915;-54
2023/05/30 09:04:41;;;;;;;;;;;;;;;22.09;24.91;102037.38;6185664;23;20273;-55
2023/05/30 09:07:07;;;;;;;;;;;;;;;22.14;24.97;102037.47;6185656;23;19908;-55
2023/05/30 09:09:33;;;;;;;;;;;;;;;22.11;24.85;102041.53;6185235;23;20306;-51
2023/05/30 09:11:58;;;;;;;;;;;;;;;22.24;24.77;102035.84;6185166;23;19908;-54
2023/05/30 09:14:23;;;;;;;;;;;;;;;22.44;24.84;102033.94;6185034;23;19970;-55
2023/05/30 09:16:48;;;;;;;;;;;;;;;22.51;24.62;102037.38;6185184;23;19908;-55
2023/05/30 09:19:14;;;;;;;;;;;;;;;22.53;24.40;102027.88;6185145;23;19908;-53
2023/05/30 09:21:39;;;;;;;;;;;;;;;22.75;24.45;102028.16;6185329;23;19912;-52
2023/05/30 09:24:05;;;;;;;;;;;;;;;22.81;24.29;102024.44;6158621;23;19990;-55
2023/05/30 09:26:32;;;;;;;;;;;;;;;22.62;24.16;102020.13;6185054;23;19995;-54
2023/05/30 09:29:07;;;;;;;;;;;;;;;22.84;24.04;102023.13;6185435;23;19909;-52
2023/05/30 09:31:34;;;;;;;;;;;;;;;22.75;24.10;102025.41;6185204;23;19916;-55
2023/05/30 09:34:01;;;;;;;;;;;;;;;22.83;24.03;102015.19;6184779;23;19916;-54
2023/05/30 09:36:26;;;;;;;;;;;;;;;23.04;23.75;102013.75;6184779;23;20281;-49
2023/05/30 09:38:52;;;;;;;;;;;;;;;22.96;23.82;102004.78;6158657;23;19908;-54
2023/05/30 09:41:17;;;;;;;;;;;;;;;22.89;23.93;102003.25;6184639;23;20015;-56
2023/05/30 09:43:43;;;;;;;;;;;;;;;22.96;23.73;101998.50;6184426;23;19998;-57
2023/05/30 09:46:08;;;;;;;;;;;;;;;23.00;23.84;101992.28;6184830;23;19912;-54
2023/05/30 09:48:33;;;;;;;;;;;;;;;23.07;23.53;101989.44;6184614;23;20272;-50
2023/05/30 09:51:02;;;;;;;;;;;;;;;23.19;23.52;101975.72;6184818;23;19912;-53
2023/05/30 09:53:32;;;;;;;;;;;;;;;23.38;23.44;101970.91;6184569;23;19967;-50
2023/05/30 09:55:57;;;;;;;;;;;;;;;23.49;23.33;101978.25;6158279;23;20321;-56
2023/05/30 09:58:23;;;;;;;;;;;;;;;23.55;23.10;101968.22;6184731;23;19908;-49
2023/05/30 10:00:51;;;;;;;;;;;;;;;23.77;22.85;101963.75;6183889;23;19916;-50
2023/05/30 10:03:39;;;;;;;;;;;;;;;23.90;22.93;101965.38;6184581;23;19908;-51
2023/05/30 10:06:14;;;;;;;;;;;;;;;23.93;23.09;101958.56;6186609;23;19983;-52
2023/05/30 10:08:41;;;;;;;;;;;;;;;24.06;22.50;101961.00;6160235;23;19941;-50
2023/05/30 10:11:08;;;;;;;;;;;;;;;24.36;22.61;101954.34;6186878;23;19958;-52
2023/05/30 10:13:33;;;;;;;;;;;;;;;24.48;22.30;101948.75;6186662;23;19912;-55
2023/05/30 10:16:01;;;;;;;;;;;;;;;24.49;22.17;101950.44;6186747;23;19919;-51
2023/05/30 10:18:26;;;;;;;;;;;;;;;24.41;22.22;101964.59;6186389;23;19909;-53
2023/05/30 10:20:51;;;;;;;;;;;;;;;24.83;22.62;101947.66;6186752;23;19915;-55
2023/05/30 10:23:17;;;;;;;;;;;;;;;25.07;21.69;101945.50;6160617;23;20055;-54
2023/05/30 10:25:46;;;;;;;;;;;;;;;25.37;21.96;101936.88;6186507;23;19908;-52
2023/05/30 10:28:18;;;;;;;;;;;;;;;25.45;21.54;101932.81;6186948;23;19964;-56
2023/05/30 10:30:43;;;;;;;;;;;;;;;25.62;21.38;101928.03;6186614;23;20307;-56
2023/05/30 10:33:09;;;;;;;;;;;;;;;25.55;21.42;101924.66;6186418;23;19919;-56
2023/05/30 10:35:35;;;;;;;;;;;;;;;26.15;21.11;101916.44;6186802;23;19915;-54
2023/05/30 10:38:01;;;;;;;;;;;;;;;26.11;20.54;101913.38;6186605;23;19912;-52
2023/05/30 10:40:36;;;;;;;;;;;;;;;26.13;20.73;101913.13;6186444;23;19915;-54
2023/05/30 10:43:19;;;;;;;;;;;;;;;26.12;21.28;101914.22;6186495;23;20232;-52
2023/05/30 10:45:47;;;;;;;;;;;;;;;26.48;20.25;101915.31;6160072;23;19908;-55
2023/05/30 10:48:26;;;;;;;;;;;;;;;26.59;20.42;101902.44;6186596;23;19908;-52
2023/05/30 10:50:53;;;;;;;;;;;;;;;27.00;19.98;101892.47;6186663;23;19959;-53
2023/05/30 10:53:19;;;;;;;;;;;;;;;27.30;20.03;101890.09;6186408;23;19947;-51
2023/05/30 10:55:48;;;;;;;;;;;;;;;27.59;19.69;101876.66;6160115;23;19908;-56
2023/05/30 10:58:33;;;;;;;;;;;;;;;27.92;19.53;101872.56;6186665;23;20234;-51
2023/05/30 11:01:18;;;;;;;;;;;;;;;27.79;18.56;101851.00;6185850;23;19980;-54
2023/05/30 11:03:45;;;;;;;;;;;;;;;28.29;19.18;101874.19;6186143;23;19908;-54
2023/05/30 11:06:10;;;;;;;;;;;;;;;28.43;18.93;101868.06;6186492;23;20393;-53
2023/05/30 11:08:38;;;;;;;;;;;;;;;28.98;19.04;101859.91;6186835;23;19986;-52
2023/05/30 11:11:14;;;;;;;;;;;;;;;29.48;18.68;101863.50;6186477;23;19915;-54
2023/05/30 11:13:43;;;;;;;;;;;;;;;29.92;18.47;101857.91;6186277;23;19919;-53
2023/05/30 11:16:24;;;;;;;;;;;;;;;30.34;17.62;101857.53;6186067;23;19908;-54
2023/05/30 11:18:55;;;;;;;;;;;;;;;30.37;17.64;101852.25;6186625;23;19908;-54
2023/05/30 11:21:39;;;;;;;;;;;;;;;30.69;17.37;101859.91;6186289;23;20355;-55
2023/05/30 11:24:07;;;;;;;;;;;;;;;30.79;17.08;101847.84;6186597;23;19908;-52
2023/05/30 11:26:52;;;;;;;;;;;;;;;30.80;16.89;101846.72;6185902;23;20292;-54
2023/05/30 11:29:33;;;;;;;;;;;;;;;30.78;17.01;101837.88;6186556;23;19909;-54
2023/05/30 11:31:58;;;;;;;;;;;;;;;31.01;17.16;101824.28;6185952;23;19912;-53
2023/05/30 11:34:24;;;;;;;;;;;;;;;31.53;17.26;101821.59;6186370;23;19946;-54
2023/05/30 11:36:49;;;;;;;;;;;;;;;31.81;16.18;101826.09;6143644;23;19927;-54
2023/05/30 11:39:18;;;;;;;;;;;;;;;32.19;16.87;101825.19;6156026;23;19913;-52
2023/05/30 11:41:43;;;;;;;;;;;;;;;32.29;15.64;101821.38;6156368;23;19909;-52
2023/05/30 11:44:08;;;;;;;;;;;;;;;32.39;16.12;101822.00;6155737;23;19935;-53
2023/05/30 11:46:34;;;;;;;;;;;;;;;32.63;15.92;101825.72;6156009;23;19909;-50
2023/05/30 11:49:04;;;;;;;;;;;;;;;32.84;15.47;101821.34;6129802;23;19912;-52
2023/05/30 11:51:30;;;;;;;;;;;;;;;32.75;15.39;101824.03;6155516;23;19987;-49
2023/05/30 11:53:56;;;;;;;;;;;;;;;33.11;15.54;101811.28;6156036;23;19947;-52
2023/05/30 11:56:21;;;;;;;;;;;;;;;33.11;15.80;101809.34;6156371;23;19909;-53
2023/05/30 11:58:49;;;;;;;;;;;;;;;33.18;15.07;101803.34;6156592;23;19909;-54
2023/05/30 12:01:16;;;;;;;;;;;;;;;33.47;15.68;101804.84;6155647;23;20303;-56
2023/05/30 12:03:43;;;;;;;;;;;;;;;33.74;15.31;101796.38;6156021;23;20035;-51
2023/05/30 12:06:14;;;;;;;;;;;;;;;34.23;15.52;101799.28;6155999;23;20307;-53
2023/05/30 12:08:41;;;;;;;;;;;;;;;34.60;13.93;101797.06;6129907;23;19923;-55
2023/05/30 12:11:06;;;;;;;;;;;;;;;34.85;14.11;101786.31;6155631;23;20334;-52
2023/05/30 12:13:32;;;;;;;;;;;;;;;35.19;14.15;101779.94;6156069;23;19913;-54
2023/05/30 12:15:57;;;;;;;;;;;;;;;35.47;13.69;101773.97;6156470;23;19909;-52
2023/05/30 12:18:23;;;;;;;;;;;;;;;35.85;13.42;101762.06;6155759;23;20294;-56
2023/05/30 12:20:48;;;;;;;;;;;;;;;36.05;13.06;101766.91;6155743;23;19909;-54
2023/05/30 12:23:14;;;;;;;;;;;;;;;35.97;12.69;101770.56;6155569;23;19908;-55
2023/05/30 12:25:39;;;;;;;;;;;;;;;36.15;13.81;101759.31;6155818;23;19916;-54
2023/05/30 12:28:05;;;;;;;;;;;;;;;36.40;12.88;101758.34;6155376;23;19908;-55
2023/05/30 12:30:34;;;;;;;;;;;;;;;36.67;12.76;101763.81;6155372;23;19916;-51
2023/05/30 12:33:11;;;;;;;;;;;;;;;36.81;12.74;101762.38;6155786;23;19944;-53